Time;durP1;ratioP1;P1;durP2;ratioP2;P2;SDS_P1;SDS_P2;PMS_P1;PMS_P2;Temp;Humidity;BMP_temperature;BMP_pressure;BME280_temperature;BME280_humidity;BME280_pressure;Samples;Min_cycle;Max_cycle;Signal;HPM_P1;HPM_P2
2022/10/13 00:01:37;;;;;;;8.85;6.28;;;12.50;99.90;;;;;;4121899;28;20038;-65
2022/10/13 00:03:40;;;;;;;13.27;7.13;;;12.50;99.90;;;;;;4115981;28;20046;-65
2022/10/13 00:05:46;;;;;;;14.15;7.07;;;12.60;99.90;;;;;;4122372;28;20034;-65
2022/10/13 00:07:46;;;;;;;11.68;5.97;;;12.60;99.90;;;;;;4124378;28;20317;-65
2022/10/13 00:09:47;;;;;;;11.93;6.68;;;12.60;99.90;;;;;;4124136;28;20045;-64
2022/10/13 00:11:47;;;;;;;12.98;6.53;;;12.60;99.90;;;;;;4121896;28;20039;-64
2022/10/13 00:13:49;;;;;;;10.63;6.80;;;12.60;99.90;;;;;;4120124;28;20545;-64
2022/10/13 00:15:50;;;;;;;12.40;6.57;;;12.60;99.90;;;;;;4126939;28;21905;-65
2022/10/13 00:17:51;;;;;;;15.52;7.38;;;12.60;99.90;;;;;;4126301;28;20045;-64
2022/10/13 00:19:52;;;;;;;11.30;6.53;;;12.60;99.90;;;;;;4124077;28;20042;-64
2022/10/13 00:21:52;;;;;;;12.70;6.80;;;12.60;99.90;;;;;;4131829;28;20035;-65
2022/10/13 00:23:54;;;;;;;11.85;6.22;;;12.60;99.90;;;;;;4120408;28;20106;-64
2022/10/13 00:25:55;;;;;;;14.05;6.82;;;12.60;99.90;;;;;;4124352;28;20077;-64
2022/10/13 00:27:55;;;;;;;14.63;7.35;;;12.60;99.90;;;;;;4139666;28;20030;-64
2022/10/13 00:29:56;;;;;;;13.40;6.15;;;12.60;99.90;;;;;;4119090;28;20488;-65
2022/10/13 00:31:56;;;;;;;11.60;5.57;;;12.60;99.90;;;;;;4121591;28;20545;-64
2022/10/13 00:33:58;;;;;;;10.27;6.10;;;12.70;99.90;;;;;;4134311;28;20034;-64
2022/10/13 00:35:59;;;;;;;14.10;6.93;;;12.70;99.90;;;;;;4114618;28;20114;-65
2022/10/13 00:37:59;;;;;;;12.02;6.15;;;12.70;99.90;;;;;;4123607;28;20468;-65
2022/10/13 00:40:00;;;;;;;14.43;6.78;;;12.70;99.90;;;;;;4124358;28;20039;-65
2022/10/13 00:42:00;;;;;;;11.45;6.80;;;12.70;99.90;;;;;;4122857;28;20043;-65
2022/10/13 00:44:04;;;;;;;11.07;6.18;;;12.70;99.90;;;;;;4122015;28;20423;-65
2022/10/13 00:46:05;;;;;;;10.38;6.85;;;12.70;99.90;;;;;;4119379;28;20492;-64
2022/10/13 00:48:06;;;;;;;14.20;7.00;;;12.70;99.90;;;;;;4120578;28;20045;-65
2022/10/13 00:50:10;;;;;;;11.20;6.28;;;12.70;99.90;;;;;;4121635;28;20062;-65
2022/10/13 00:52:13;;;;;;;12.07;6.38;;;12.70;99.90;;;;;;4119419;28;20511;-64
2022/10/13 00:54:19;;;;;;;14.20;6.68;;;12.70;99.90;;;;;;4123495;28;20041;-64
2022/10/13 00:56:21;;;;;;;13.30;6.32;;;12.70;99.90;;;;;;4121013;28;20114;-64
2022/10/13 00:58:24;;;;;;;14.32;6.63;;;12.70;99.90;;;;;;4119408;28;20479;-65
2022/10/13 01:00:25;;;;;;;12.50;6.38;;;12.70;99.90;;;;;;4121363;28;20027;-66
2022/10/13 01:02:31;;;;;;;8.48;5.47;;;12.70;99.90;;;;;;4119437;28;20119;-66
2022/10/13 01:04:36;;;;;;;11.32;6.90;;;12.70;99.90;;;;;;4126964;28;20026;-66
2022/10/13 01:06:37;;;;;;;13.98;7.13;;;12.70;99.90;;;;;;4122500;28;20181;-66
2022/10/13 01:08:38;;;;;;;9.82;6.50;;;12.80;99.90;;;;;;4118984;28;20496;-66
2022/10/13 01:10:57;;;;;;;11.27;6.32;;;12.80;99.90;;;;;;4119142;28;20035;-66
2022/10/13 01:13:10;;;;;;;15.73;6.78;;;12.80;99.90;;;;;;4121355;28;20496;-66
2022/10/13 01:15:39;;;;;;;8.65;5.75;;;12.80;99.90;;;;;;4117792;28;20034;-66
2022/10/13 01:17:54;;;;;;;9.15;5.95;;;12.80;99.90;;;;;;4122191;28;20031;-66
2022/10/13 01:20:15;;;;;;;18.38;7.60;;;12.80;99.90;;;;;;4123605;28;20034;-66
2022/10/13 01:22:18;;;;;;;11.93;6.32;;;12.80;99.90;;;;;;4135130;28;20462;-67
2022/10/13 01:24:56;;;;;;;11.38;6.82;;;12.80;99.90;;;;;;4135130;28;20034;-66
2022/10/13 01:27:07;;;;;;;12.30;6.95;;;12.80;99.90;;;;;;4132754;28;20357;-66
2022/10/13 01:29:29;;;;;;;13.23;6.15;;;12.80;99.90;;;;;;4134592;28;20096;-66
2022/10/13 01:31:38;;;;;;;12.65;6.50;;;12.80;99.90;;;;;;4139879;28;20030;-66
2022/10/13 01:34:05;;;;;;;13.57;6.30;;;12.80;99.90;;;;;;4135097;28;20053;-66
2022/10/13 01:36:30;;;;;;;11.15;6.45;;;12.80;99.90;;;;;;4126928;28;20410;-67
2022/10/13 01:38:53;;;;;;;11.05;6.57;;;12.80;99.90;;;;;;4145340;28;20140;-66
2022/10/13 01:41:21;;;;;;;10.38;6.65;;;12.80;99.90;;;;;;4136538;28;20033;-67
2022/10/13 01:43:26;;;;;;;9.52;6.50;;;12.80;99.90;;;;;;4134568;28;20034;-66
2022/10/13 01:45:46;;;;;;;16.10;7.15;;;12.80;99.90;;;;;;4138051;28;20032;-66
2022/10/13 01:47:48;;;;;;;11.15;6.22;;;12.80;99.90;;;;;;4134549;28;20112;-66
2022/10/13 01:49:51;;;;;;;11.45;6.55;;;12.80;99.90;;;;;;4150454;28;20055;-67
2022/10/13 01:51:54;;;;;;;12.77;6.93;;;12.80;99.90;;;;;;4142640;28;20111;-67
2022/10/13 01:53:55;;;;;;;13.10;7.00;;;12.80;99.90;;;;;;4135337;28;20449;-66
2022/10/13 01:55:58;;;;;;;12.43;6.32;;;12.80;99.90;;;;;;4135445;28;20077;-67
2022/10/13 01:57:59;;;;;;;12.27;6.70;;;12.90;99.90;;;;;;4135290;28;20128;-66
2022/10/13 02:00:20;;;;;;;11.73;7.07;;;12.80;99.90;;;;;;4139341;28;20042;-66
2022/10/13 02:02:30;;;;;;;14.15;6.90;;;12.80;99.90;;;;;;4141313;28;20042;-66
2022/10/13 02:04:34;;;;;;;13.40;7.32;;;12.80;99.90;;;;;;4133142;28;20041;-66
2022/10/13 02:06:46;;;;;;;13.40;7.15;;;12.80;99.90;;;;;;4151253;28;20108;-66
2022/10/13 02:09:09;;;;;;;16.45;6.75;;;12.80;99.90;;;;;;4139360;28;20183;-66
2022/10/13 02:11:21;;;;;;;9.82;6.50;;;12.80;99.90;;;;;;4135916;28;20030;-66
2022/10/13 02:13:26;;;;;;;10.30;6.50;;;12.80;99.90;;;;;;4134818;28;20649;-66
2022/10/13 02:15:44;;;;;;;12.77;7.20;;;12.80;99.90;;;;;;4134802;28;20034;-66
2022/10/13 02:17:45;;;;;;;15.73;6.72;;;12.80;99.90;;;;;;4138481;28;20490;-66
2022/10/13 02:19:45;;;;;;;9.13;6.03;;;12.80;99.90;;;;;;4151054;28;20025;-66
2022/10/13 02:21:47;;;;;;;9.95;6.88;;;12.80;99.90;;;;;;4142060;28;20061;-67
2022/10/13 02:23:47;;;;;;;12.48;7.03;;;12.70;99.90;;;;;;4138656;28;20026;-66
2022/10/13 02:25:49;;;;;;;11.52;6.45;;;12.70;99.90;;;;;;4147508;28;20116;-66
2022/10/13 02:27:50;;;;;;;10.68;6.50;;;12.70;99.90;;;;;;4139463;28;20463;-66
2022/10/13 02:29:54;;;;;;;14.43;7.25;;;12.80;99.90;;;;;;4139476;28;20037;-66
2022/10/13 02:31:55;;;;;;;11.43;6.82;;;12.80;99.90;;;;;;4136784;28;20562;-66
2022/10/13 02:33:55;;;;;;;9.80;6.15;;;12.70;99.90;;;;;;4147573;28;20041;-66
2022/10/13 02:35:56;;;;;;;13.88;7.07;;;12.80;99.90;;;;;;4134817;28;20037;-64
2022/10/13 02:37:56;;;;;;;9.77;6.32;;;12.80;99.90;;;;;;4142313;28;20116;-64
2022/10/13 02:39:57;;;;;;;10.73;6.38;;;12.80;99.90;;;;;;4134715;28;20430;-65
2022/10/13 02:41:57;;;;;;;10.02;6.47;;;12.70;99.90;;;;;;4137936;28;20091;-64
2022/10/13 02:43:58;;;;;;;13.95;7.03;;;12.80;99.90;;;;;;4143273;28;20049;-65
2022/10/13 02:45:58;;;;;;;10.75;5.93;;;12.80;99.90;;;;;;4138084;28;20483;-66
2022/10/13 02:47:59;;;;;;;9.35;6.40;;;12.80;99.90;;;;;;4141248;28;20064;-65
2022/10/13 02:50:00;;;;;;;14.35;6.93;;;12.70;99.90;;;;;;4132260;28;20121;-65
2022/10/13 02:52:01;;;;;;;10.90;6.45;;;12.70;99.90;;;;;;4139149;28;20045;-65
2022/10/13 02:54:01;;;;;;;10.98;6.47;;;12.70;99.90;;;;;;4142133;28;20126;-65
2022/10/13 02:56:02;;;;;;;12.73;6.78;;;12.70;99.90;;;;;;4154330;28;20050;-65
2022/10/13 02:58:03;;;;;;;11.15;6.88;;;12.70;99.90;;;;;;4139067;28;20038;-66
2022/10/13 03:00:06;;;;;;;11.93;6.88;;;12.70;99.90;;;;;;4135142;28;20041;-65
2022/10/13 03:02:06;;;;;;;11.57;6.70;;;12.70;99.90;;;;;;4139133;28;20033;-65
2022/10/13 03:04:07;;;;;;;12.23;6.85;;;12.70;99.90;;;;;;4140197;28;20507;-64
2022/10/13 03:06:08;;;;;;;15.45;6.80;;;12.70;99.90;;;;;;4149486;28;20100;-64
2022/10/13 03:08:09;;;;;;;12.70;6.90;;;12.70;99.90;;;;;;4133968;28;20046;-65
2022/10/13 03:10:10;;;;;;;13.10;6.90;;;12.70;99.90;;;;;;4134270;28;20089;-65
2022/10/13 03:12:11;;;;;;;13.23;7.07;;;12.70;99.90;;;;;;4149370;28;20479;-65
2022/10/13 03:14:12;;;;;;;10.45;6.93;;;12.70;99.90;;;;;;4137820;28;20380;-64
2022/10/13 03:16:12;;;;;;;11.75;6.65;;;12.70;99.90;;;;;;4129214;28;20050;-64
2022/10/13 03:18:13;;;;;;;12.27;6.90;;;12.70;99.90;;;;;;4133581;28;20437;-64
2022/10/13 03:20:13;;;;;;;11.10;6.68;;;12.60;99.90;;;;;;4138969;28;20046;-65
2022/10/13 03:22:14;;;;;;;11.25;6.68;;;12.60;99.90;;;;;;4138733;28;20120;-64
2022/10/13 03:24:15;;;;;;;12.65;7.32;;;12.70;99.90;;;;;;4148792;28;20038;-64
2022/10/13 03:26:15;;;;;;;10.70;6.55;;;12.60;99.90;;;;;;4132429;28;20035;-64
2022/10/13 03:28:16;;;;;;;10.93;6.22;;;12.60;99.90;;;;;;4132056;28;20129;-64
2022/10/13 03:30:17;;;;;;;12.55;6.72;;;12.60;99.90;;;;;;4134650;28;20420;-64
2022/10/13 03:32:17;;;;;;;13.27;6.20;;;12.60;99.90;;;;;;4137367;28;20030;-64
2022/10/13 03:34:19;;;;;;;11.45;7.10;;;12.60;99.90;;;;;;4146621;28;20034;-65
2022/10/13 03:36:19;;;;;;;10.65;5.75;;;12.60;99.90;;;;;;4132872;28;20045;-64
2022/10/13 03:38:20;;;;;;;13.98;7.18;;;12.60;99.90;;;;;;4133580;28;20051;-64
2022/10/13 03:40:20;;;;;;;12.50;6.95;;;12.60;99.90;;;;;;4136971;28;20041;-65
2022/10/13 03:42:21;;;;;;;10.73;6.57;;;12.60;99.90;;;;;;4135424;28;20042;-64
2022/10/13 03:44:22;;;;;;;10.77;6.13;;;12.60;99.90;;;;;;4149375;28;20029;-65
2022/10/13 03:46:26;;;;;;;10.93;6.22;;;12.50;99.90;;;;;;4140973;28;20034;-65
2022/10/13 03:48:27;;;;;;;8.73;6.50;;;12.60;99.90;;;;;;4137024;28;20100;-64
2022/10/13 03:50:28;;;;;;;13.27;7.28;;;12.60;99.90;;;;;;4136936;28;20365;-65
2022/10/13 03:52:28;;;;;;;10.50;6.38;;;12.60;99.90;;;;;;4133400;28;20027;-64
2022/10/13 03:54:29;;;;;;;8.93;6.13;;;12.60;99.90;;;;;;4137698;28;20026;-65
2022/10/13 03:56:30;;;;;;;11.32;7.20;;;12.60;99.90;;;;;;4141518;28;20553;-66
2022/10/13 03:58:30;;;;;;;10.95;7.20;;;12.50;99.90;;;;;;4139985;28;20518;-65
2022/10/13 04:00:33;;;;;;;13.27;7.07;;;12.60;99.90;;;;;;4131488;28;20134;-64
2022/10/13 04:02:34;;;;;;;;;;;12.60;99.90;;;;;;4134127;28;20035;-65
2022/10/13 04:04:36;;;;;;;12.65;6.95;;;12.60;99.90;;;;;;4149452;28;19932;-64
2022/10/13 04:06:37;;;;;;;10.25;6.45;;;12.60;99.90;;;;;;4133115;28;20033;-65
2022/10/13 04:08:37;;;;;;;13.75;7.65;;;12.60;99.90;;;;;;4144443;28;20056;-64
2022/10/13 04:10:38;;;;;;;13.70;7.30;;;12.60;99.90;;;;;;4140056;28;20539;-64
2022/10/13 04:12:39;;;;;;;10.48;6.80;;;12.60;99.90;;;;;;4134820;28;20042;-64
2022/10/13 04:14:39;;;;;;;10.05;6.05;;;12.60;99.90;;;;;;4135686;28;20383;-64
2022/10/13 04:16:40;;;;;;;12.80;6.85;;;12.50;99.90;;;;;;4142727;28;20458;-66
2022/10/13 04:18:41;;;;;;;11.00;6.28;;;12.60;99.90;;;;;;4137210;28;20399;-65
2022/10/13 04:20:41;;;;;;;11.00;6.28;;;12.60;99.90;;;;;;4139477;28;20061;-64
2022/10/13 04:22:42;;;;;;;11.30;7.00;;;12.60;99.90;;;;;;4152152;28;20091;-64
2022/10/13 04:24:42;;;;;;;12.57;6.65;;;12.60;99.90;;;;;;4140452;28;20487;-65
2022/10/13 04:26:45;;;;;;;16.05;7.00;;;12.50;99.90;;;;;;4139692;28;20483;-65
2022/10/13 04:28:47;;;;;;;9.70;6.57;;;12.60;99.90;;;;;;4159618;28;20042;-64
2022/10/13 04:30:47;;;;;;;10.55;6.75;;;12.60;99.90;;;;;;4138099;28;20057;-64
2022/10/13 04:32:48;;;;;;;14.10;6.57;;;12.50;99.90;;;;;;4155015;28;20018;-64
2022/10/13 04:34:49;;;;;;;11.23;6.60;;;12.60;99.90;;;;;;4141486;28;20472;-64
2022/10/13 04:36:50;;;;;;;11.38;7.05;;;12.60;99.90;;;;;;4135642;28;20058;-64
2022/10/13 04:38:52;;;;;;;11.68;6.85;;;12.60;99.90;;;;;;4143712;28;20037;-64
2022/10/13 04:40:53;;;;;;;10.68;6.63;;;12.60;99.90;;;;;;4139045;28;20104;-64
2022/10/13 04:42:53;;;;;;;10.73;6.55;;;12.60;99.90;;;;;;4133876;28;20041;-64
2022/10/13 04:44:54;;;;;;;8.50;6.03;;;12.60;99.90;;;;;;4137492;28;20061;-64
2022/10/13 04:46:54;;;;;;;9.55;6.50;;;12.60;99.90;;;;;;4137423;28;20034;-64
2022/10/13 04:48:55;;;;;;;10.60;6.32;;;12.70;99.90;;;;;;4136455;28;20038;-64
2022/10/13 04:51:05;;;;;;;12.48;7.35;;;12.60;99.90;;;;;;4140988;28;20438;-64
2022/10/13 04:53:05;;;;;;;9.35;6.30;;;12.60;99.90;;;;;;4137061;28;20030;-65
2022/10/13 04:55:07;;;;;;;11.50;7.38;;;12.70;99.90;;;;;;4115115;28;20077;-65
2022/10/13 04:57:08;;;;;;;13.48;7.32;;;12.70;99.90;;;;;;4116452;28;20141;-65
2022/10/13 04:59:08;;;;;;;11.40;6.78;;;12.70;99.90;;;;;;4124500;28;20042;-64
2022/10/13 05:01:15;;;;;;;9.75;6.25;;;12.70;99.90;;;;;;4121907;28;20042;-65
2022/10/13 05:03:16;;;;;;;11.00;6.57;;;12.70;99.90;;;;;;4139153;28;20038;-65
2022/10/13 05:05:16;;;;;;;9.35;6.35;;;12.70;99.90;;;;;;4121281;28;20093;-64
2022/10/13 05:07:17;;;;;;;10.73;6.90;;;12.70;99.90;;;;;;4124318;28;20153;-65
2022/10/13 05:09:18;;;;;;;11.63;6.28;;;12.70;99.90;;;;;;4123735;28;20427;-65
2022/10/13 05:11:19;;;;;;;10.30;6.15;;;12.70;99.90;;;;;;4123288;28;20046;-65
2022/10/13 05:13:19;;;;;;;12.05;6.45;;;12.70;99.90;;;;;;4125435;28;20201;-65
2022/10/13 05:15:20;;;;;;;9.85;6.35;;;12.70;99.90;;;;;;4124309;28;20536;-65
2022/10/13 05:17:21;;;;;;;12.75;6.72;;;12.70;99.90;;;;;;4124198;28;20468;-65
2022/10/13 05:19:22;;;;;;;8.88;6.20;;;12.70;99.90;;;;;;4124901;28;20042;-65
2022/10/13 05:21:25;;;;;;;12.15;6.68;;;12.70;99.90;;;;;;4124009;28;20035;-64
2022/10/13 05:23:26;;;;;;;10.52;6.80;;;12.60;99.90;;;;;;4136418;28;20420;-65
2022/10/13 05:25:26;;;;;;;11.35;7.05;;;12.60;99.90;;;;;;4123685;28;20035;-65
2022/10/13 05:27:27;;;;;;;16.75;7.25;;;12.60;99.90;;;;;;4125760;28;20034;-65
2022/10/13 05:29:27;;;;;;;11.18;6.82;;;12.60;99.90;;;;;;4120853;28;20034;-64
2022/10/13 05:31:30;;;;;;;9.85;7.05;;;12.60;99.90;;;;;;4137734;28;20041;-65
2022/10/13 05:33:30;;;;;;;14.48;8.23;;;12.60;99.90;;;;;;4120516;28;20461;-65
2022/10/13 05:35:31;;;;;;;16.75;9.95;;;12.60;99.90;;;;;;4124351;28;20030;-64
2022/10/13 05:37:31;;;;;;;21.30;11.60;;;12.50;99.90;;;;;;4124327;28;20042;-65
2022/10/13 05:39:32;;;;;;;22.88;13.15;;;12.50;99.90;;;;;;4123002;28;20034;-64
2022/10/13 05:41:33;;;;;;;30.60;15.93;;;12.40;99.90;;;;;;4122182;28;20045;-65
2022/10/13 05:43:34;;;;;;;33.13;17.70;;;12.40;99.90;;;;;;4140026;28;20041;-64
2022/10/13 05:45:35;;;;;;;36.55;20.13;;;12.40;99.90;;;;;;4124652;28;20030;-65
2022/10/13 05:47:36;;;;;;;37.65;18.33;;;12.30;99.90;;;;;;4122840;28;20113;-65
2022/10/13 05:49:38;;;;;;;33.90;17.55;;;12.30;99.90;;;;;;4122501;28;20074;-64
2022/10/13 05:51:44;;;;;;;27.35;14.43;;;12.30;99.90;;;;;;4123657;28;20125;-65
2022/10/13 05:53:49;;;;;;;20.75;12.05;;;12.30;99.90;;;;;;4121816;28;20034;-65
2022/10/13 05:55:51;;;;;;;20.50;10.77;;;12.30;99.90;;;;;;4123892;28;20549;-64
2022/10/13 05:57:52;;;;;;;15.82;8.93;;;12.30;99.90;;;;;;4122779;28;20034;-64
2022/10/13 06:00:07;;;;;;;19.05;8.43;;;12.30;99.90;;;;;;4122439;28;20054;-65
2022/10/13 06:02:11;;;;;;;11.57;7.65;;;12.30;99.90;;;;;;4122849;28;20616;-65
2022/10/13 06:04:20;;;;;;;14.50;7.97;;;12.30;99.90;;;;;;4139781;28;20057;-65
2022/10/13 06:06:22;;;;;;;12.10;7.00;;;12.30;99.90;;;;;;4138730;28;20045;-65
2022/10/13 06:08:23;;;;;;;18.13;8.23;;;12.30;99.90;;;;;;4140066;28;20058;-64
2022/10/13 06:10:25;;;;;;;12.80;7.35;;;12.30;99.90;;;;;;4137779;28;20038;-63
2022/10/13 06:12:25;;;;;;;12.95;6.70;;;12.40;99.90;;;;;;4139719;28;20117;-63
2022/10/13 06:14:26;;;;;;;13.30;7.45;;;12.40;99.90;;;;;;4154993;28;20033;-63
2022/10/13 06:16:26;;;;;;;11.75;7.50;;;12.40;99.90;;;;;;4139042;28;20045;-63
2022/10/13 06:18:27;;;;;;;12.20;6.63;;;12.40;99.90;;;;;;4155857;28;20045;-63
2022/10/13 06:20:28;;;;;;;10.98;6.80;;;12.40;99.90;;;;;;4140156;28;20083;-63
2022/10/13 06:22:28;;;;;;;12.20;7.00;;;12.50;99.90;;;;;;4141527;28;20578;-63
2022/10/13 06:24:29;;;;;;;11.43;6.45;;;12.50;99.90;;;;;;4141210;28;20032;-63
2022/10/13 06:26:29;;;;;;;14.15;6.63;;;12.50;99.90;;;;;;4137879;28;20088;-63
2022/10/13 06:28:30;;;;;;;13.10;7.53;;;12.50;99.90;;;;;;4138902;28;20030;-63
2022/10/13 06:30:31;;;;;;;13.50;7.32;;;12.50;99.90;;;;;;4137396;28;20041;-63
2022/10/13 06:32:31;;;;;;;11.63;6.57;;;12.50;99.90;;;;;;4137782;28;20033;-65
2022/10/13 06:34:32;;;;;;;11.05;6.85;;;12.50;99.90;;;;;;4139435;28;20113;-63
2022/10/13 06:36:33;;;;;;;12.73;7.32;;;12.50;99.90;;;;;;4136438;28;20022;-64
2022/10/13 06:38:33;;;;;;;11.18;6.88;;;12.50;99.90;;;;;;4137243;28;20026;-63
2022/10/13 06:40:34;;;;;;;9.95;6.47;;;12.60;99.90;;;;;;4150028;28;20053;-64
2022/10/13 06:42:34;;;;;;;16.83;7.53;;;12.60;99.90;;;;;;4139003;28;20041;-63
2022/10/13 06:44:35;;;;;;;14.20;7.60;;;12.60;99.90;;;;;;4139232;28;20041;-63
2022/10/13 06:46:36;;;;;;;13.20;6.97;;;12.60;99.90;;;;;;4148883;28;20862;-65
2022/10/13 06:48:36;;;;;;;11.25;6.30;;;12.70;99.90;;;;;;4135903;28;20026;-63
2022/10/13 06:50:37;;;;;;;11.90;6.88;;;12.60;99.90;;;;;;4136063;28;20072;-66
2022/10/13 06:52:38;;;;;;;13.38;7.07;;;12.60;99.90;;;;;;4137768;28;20475;-64
2022/10/13 06:54:38;;;;;;;14.02;7.47;;;12.70;99.90;;;;;;4137056;28;20026;-63
2022/10/13 06:56:39;;;;;;;12.43;7.10;;;12.70;99.90;;;;;;4137755;28;20126;-64
2022/10/13 06:58:39;;;;;;;13.95;7.53;;;12.70;99.90;;;;;;4147120;28;20103;-64
2022/10/13 07:00:41;;;;;;;13.15;7.30;;;12.70;99.90;;;;;;4135803;28;20116;-63
2022/10/13 07:02:41;;;;;;;12.02;7.68;;;12.80;99.90;;;;;;4139581;28;20121;-64
2022/10/13 07:04:42;;;;;;;13.55;7.75;;;12.80;99.90;;;;;;4139629;28;20073;-64
2022/10/13 07:06:42;;;;;;;12.30;7.30;;;12.80;99.90;;;;;;4138647;28;20018;-63
2022/10/13 07:08:43;;;;;;;11.32;7.60;;;12.80;99.90;;;;;;4139934;28;20057;-63
2022/10/13 07:10:44;;;;;;;10.75;7.22;;;12.80;99.90;;;;;;4137300;28;20048;-64
2022/10/13 07:12:45;;;;;;;11.65;7.30;;;12.90;99.90;;;;;;4137733;28;20041;-63
2022/10/13 07:14:45;;;;;;;10.27;6.72;;;12.90;99.90;;;;;;4140088;28;20026;-65
2022/10/13 07:16:47;;;;;;;12.32;7.10;;;12.90;99.90;;;;;;4139318;28;20042;-65
2022/10/13 07:18:48;;;;;;;11.35;6.85;;;13.00;99.90;;;;;;4145481;28;20043;-64
2022/10/13 07:20:49;;;;;;;11.63;7.40;;;13.00;99.90;;;;;;4134961;28;20046;-64
2022/10/13 07:22:52;;;;;;;14.70;7.95;;;13.10;99.90;;;;;;4139323;28;20046;-63
2022/10/13 07:24:53;;;;;;;14.07;7.75;;;13.10;99.90;;;;;;4153300;28;20188;-64
2022/10/13 07:26:53;;;;;;;12.65;7.03;;;13.20;99.90;;;;;;4135639;28;20077;-64
2022/10/13 07:28:54;;;;;;;14.00;8.00;;;13.20;99.90;;;;;;4139144;28;20387;-64
2022/10/13 07:30:55;;;;;;;11.98;7.57;;;13.20;99.90;;;;;;4136607;28;20034;-63
2022/10/13 07:32:55;;;;;;;15.27;7.30;;;13.20;99.90;;;;;;4140784;28;20034;-64
2022/10/13 07:34:56;;;;;;;15.57;7.40;;;13.20;99.90;;;;;;4152704;28;20124;-65
2022/10/13 07:36:56;;;;;;;11.90;6.97;;;13.30;99.90;;;;;;4138076;28;20030;-64
2022/10/13 07:38:57;;;;;;;17.02;7.88;;;13.30;99.90;;;;;;4136543;28;20580;-63
2022/10/13 07:41:05;;;;;;;14.15;7.55;;;13.30;99.90;;;;;;4153409;28;20494;-63
2022/10/13 07:43:06;;;;;;;12.80;7.85;;;13.40;99.90;;;;;;4139185;28;20050;-63
2022/10/13 07:45:07;;;;;;;16.38;8.50;;;13.50;99.90;;;;;;4137010;28;20103;-64
2022/10/13 07:47:08;;;;;;;16.67;8.25;;;13.50;99.90;;;;;;4139314;28;20042;-64
2022/10/13 07:49:08;;;;;;;14.85;7.95;;;13.60;99.90;;;;;;4137239;28;20061;-64
2022/10/13 07:51:11;;;;;;;17.27;8.65;;;13.60;99.90;;;;;;4139674;28;20053;-63
2022/10/13 07:53:12;;;;;;;15.23;8.20;;;13.60;99.90;;;;;;4140449;28;20038;-63
2022/10/13 07:55:13;;;;;;;13.02;7.80;;;13.70;99.90;;;;;;4140230;28;20048;-63
2022/10/13 07:57:14;;;;;;;14.63;7.90;;;13.70;99.90;;;;;;4140922;28;20049;-63
2022/10/13 07:59:14;;;;;;;16.67;8.73;;;13.70;99.90;;;;;;4141113;28;20037;-63
2022/10/13 08:01:15;;;;;;;10.38;7.32;;;13.70;99.90;;;;;;4142713;28;20442;-63
2022/10/13 08:03:16;;;;;;;13.27;8.13;;;13.70;99.90;;;;;;4143499;28;20050;-63
2022/10/13 08:05:16;;;;;;;15.40;8.88;;;13.80;99.90;;;;;;4142910;28;20045;-64
2022/10/13 08:07:17;;;;;;;12.23;6.97;;;13.80;99.90;;;;;;4142657;28;20157;-63
2022/10/13 08:09:18;;;;;;;16.63;7.78;;;13.80;99.90;;;;;;4141851;28;20099;-64
2022/10/13 08:11:18;;;;;;;20.20;7.85;;;13.80;99.90;;;;;;4140162;28;20564;-63
2022/10/13 08:13:19;;;;;;;14.82;7.93;;;13.80;99.90;;;;;;4141235;28;20487;-63
2022/10/13 08:15:20;;;;;;;14.13;7.75;;;13.80;99.90;;;;;;4140866;28;21249;-63
2022/10/13 08:17:21;;;;;;;14.07;8.32;;;13.80;99.90;;;;;;4141399;28;20122;-64
2022/10/13 08:19:25;;;;;;;16.20;8.48;;;13.80;99.90;;;;;;4140491;28;20042;-64
2022/10/13 08:21:27;;;;;;;21.02;8.43;;;13.80;99.90;;;;;;4142034;28;20054;-64
2022/10/13 08:23:27;;;;;;;13.03;7.93;;;13.80;99.90;;;;;;4157058;28;20045;-63
2022/10/13 08:25:28;;;;;;;14.30;7.90;;;13.80;99.90;;;;;;4143016;28;20506;-63
2022/10/13 08:27:29;;;;;;;18.38;9.73;;;13.80;99.90;;;;;;4141807;28;20451;-64
2022/10/13 08:29:29;;;;;;;15.55;8.15;;;13.80;99.90;;;;;;4139642;28;20410;-63
2022/10/13 08:31:30;;;;;;;16.02;8.90;;;13.80;99.90;;;;;;4140123;28;20123;-63
2022/10/13 08:33:30;;;;;;;14.38;8.27;;;13.80;99.90;;;;;;4141014;28;20034;-64
2022/10/13 08:35:31;;;;;;;14.32;8.57;;;13.90;99.90;;;;;;4141264;28;20113;-64
2022/10/13 08:37:31;;;;;;;17.10;9.38;;;13.90;99.90;;;;;;4156548;28;20034;-63
2022/10/13 08:39:32;;;;;;;15.73;8.65;;;13.90;99.90;;;;;;4140925;28;20450;-63
2022/10/13 08:41:38;;;;;;;18.35;8.52;;;13.90;99.90;;;;;;4140308;28;20124;-64
2022/10/13 08:43:39;;;;;;;15.15;8.80;;;13.90;99.90;;;;;;4140208;28;20053;-63
2022/10/13 08:45:41;;;;;;;15.30;8.85;;;13.90;99.90;;;;;;4140848;28;20042;-63
2022/10/13 08:47:53;;;;;;;15.77;8.60;;;13.90;99.90;;;;;;4145038;28;20045;-63
2022/10/13 08:49:56;;;;;;;20.88;9.40;;;13.90;99.90;;;;;;4139960;28;20046;-64
2022/10/13 08:51:57;;;;;;;12.43;8.68;;;14.00;99.90;;;;;;4141492;28;20046;-64
2022/10/13 08:53:58;;;;;;;17.15;8.52;;;14.00;99.90;;;;;;4140729;28;20107;-64
2022/10/13 08:56:06;;;;;;;21.33;9.43;;;14.00;99.90;;;;;;4135824;28;20475;-64
2022/10/13 08:58:25;;;;;;;14.35;8.00;;;14.10;99.90;;;;;;4153994;28;20518;-63
2022/10/13 09:00:28;;;;;;;16.95;8.45;;;14.10;99.90;;;;;;4152638;28;20041;-63
2022/10/13 09:02:30;;;;;;;13.82;8.32;;;14.10;99.90;;;;;;4156257;28;20186;-63
2022/10/13 09:04:38;;;;;;;14.98;8.20;;;14.20;99.90;;;;;;4140737;28;20081;-64
2022/10/13 09:06:43;;;;;;;19.48;8.82;;;14.30;99.90;;;;;;4138120;28;20041;-64
2022/10/13 09:08:52;;;;;;;16.15;7.70;;;14.30;99.90;;;;;;4139063;28;20108;-63
2022/10/13 09:10:52;;;;;;;14.50;8.63;;;14.40;99.90;;;;;;4136440;28;20600;-63
2022/10/13 09:12:54;;;;;;;13.05;8.00;;;14.40;99.90;;;;;;4155064;28;20033;-63
2022/10/13 09:15:08;;;;;;;14.55;8.15;;;14.50;99.90;;;;;;4138159;28;20160;-63
2022/10/13 09:17:25;;;;;;;17.92;8.60;;;14.60;99.90;;;;;;4136733;28;20068;-63
2022/10/13 09:19:35;;;;;;;14.50;8.00;;;14.70;99.90;;;;;;4138503;28;20034;-65
2022/10/13 09:21:35;;;;;;;19.77;9.23;;;14.80;99.90;;;;;;4140195;28;20042;-64
2022/10/13 09:23:36;;;;;;;14.95;9.05;;;14.80;99.90;;;;;;4141459;28;20030;-63
2022/10/13 09:25:47;;;;;;;21.52;9.55;;;14.90;99.90;;;;;;4138764;28;20379;-63
2022/10/13 09:27:59;;;;;;;16.48;7.95;;;15.00;99.90;;;;;;4137704;28;20030;-63
2022/10/13 09:30:28;;;;;;;12.77;8.03;;;15.10;99.90;;;;;;4137399;28;20045;-63
2022/10/13 09:32:34;;;;;;;17.10;8.10;;;15.20;99.90;;;;;;4137103;28;20110;-64
2022/10/13 09:34:35;;;;;;;16.38;9.20;;;15.30;99.90;;;;;;4136077;28;20037;-65
2022/10/13 09:36:36;;;;;;;25.25;8.88;;;15.30;99.90;;;;;;4152569;28;20548;-64
2022/10/13 09:38:38;;;;;;;12.35;7.50;;;15.40;99.90;;;;;;4138833;28;20105;-63
2022/10/13 09:40:40;;;;;;;12.40;7.75;;;15.40;99.90;;;;;;4137882;28;20165;-63
2022/10/13 09:42:40;;;;;;;17.42;8.93;;;15.40;99.90;;;;;;4138684;28;20026;-64
2022/10/13 09:44:41;;;;;;;12.05;7.35;;;15.50;99.90;;;;;;4134871;28;20033;-64
2022/10/13 09:46:55;;;;;;;12.38;7.15;;;15.50;99.90;;;;;;4152736;28;20670;-64
2022/10/13 09:49:22;;;;;;;18.88;9.00;;;15.60;99.90;;;;;;4140081;28;20125;-64
2022/10/13 09:51:32;;;;;;;16.30;8.45;;;15.60;99.90;;;;;;4136898;28;20523;-65
2022/10/13 09:53:36;;;;;;;16.13;9.07;;;15.60;99.90;;;;;;4139775;28;20040;-63
2022/10/13 09:55:36;;;;;;;17.73;8.93;;;15.70;99.90;;;;;;4139183;28;20091;-63
2022/10/13 09:57:43;;;;;;;14.10;8.50;;;15.70;99.90;;;;;;4140626;28;20038;-64
2022/10/13 09:59:50;;;;;;;15.40;8.80;;;15.60;99.90;;;;;;4139130;28;20042;-63
2022/10/13 10:01:53;;;;;;;14.23;8.65;;;15.60;99.90;;;;;;4139352;28;20038;-63
2022/10/13 10:03:55;;;;;;;13.10;8.15;;;15.60;99.90;;;;;;4140293;28;20050;-63
2022/10/13 10:05:57;;;;;;;;;;;15.70;99.90;;;;;;4138785;28;20030;-64
2022/10/13 10:08:22;;;;;;;14.52;8.18;;;15.60;99.90;;;;;;4140950;28;20260;-63
2022/10/13 10:10:26;;;;;;;15.63;8.10;;;15.70;99.90;;;;;;4154316;28;20044;-63
2022/10/13 10:12:29;;;;;;;17.05;8.75;;;15.70;99.90;;;;;;4154152;28;20029;-63
2022/10/13 10:14:33;;;;;;;17.38;8.10;;;15.70;99.90;;;;;;4139522;28;20117;-63
2022/10/13 10:16:40;;;;;;;23.70;8.45;;;15.70;99.90;;;;;;4137807;28;20039;-65
2022/10/13 10:18:47;;;;;;;13.82;7.90;;;15.70;99.90;;;;;;4138569;28;20625;-64
2022/10/13 10:21:05;;;;;;;11.90;7.07;;;15.70;99.90;;;;;;4138910;28;20152;-64
2022/10/13 10:23:28;;;;;;;14.38;7.18;;;15.80;99.90;;;;;;4122792;28;20042;-63
2022/10/13 10:25:51;;;;;;;15.38;7.43;;;15.80;99.90;;;;;;4121376;28;20094;-64
2022/10/13 10:28:06;;;;;;;11.60;6.90;;;15.90;99.90;;;;;;4117921;28;20120;-64
2022/10/13 10:30:19;;;;;;;12.77;7.75;;;16.00;99.90;;;;;;4135496;28;20066;-63
2022/10/13 10:32:26;;;;;;;;;;;16.00;99.90;;;;;;4125258;28;20038;-64
2022/10/13 10:34:35;;;;;;;14.88;7.53;;;16.10;99.90;;;;;;4124616;28;19909;-64
2022/10/13 10:36:42;;;;;;;14.98;7.43;;;16.10;99.90;;;;;;4121015;28;20093;-63